KOGD

Ogden-Hinckley Airport

Ogden, Utah, USA
METAR KOGD 182053Z 21005KT 10SM CLR 28/07 A3018 RMK AO2 SLP162 T02780072 58014
Observed Flight Rules
Aug-18 @ 20:53 UTC (an hour ago) Visual Flight Rules
Wind Visibility Clouds
210° at 5 knots 10 miles
  • Clear skies
Temperatures Readings
Current 28°C / 82°F
Dewpoint 7°C / 45°F
Humidity 26%
Altimeter 30.18" Hg
Pressure 1016.2 hPa
Elevation 1353
METAR KOGD 182053Z 21005KT 10SM CLR 28/07 A3018 RMK AO2 SLP162 T02780072 58014
Observed Flight Rules
Aug-18 @ 20:53 UTC
(an hour ago)
VFR
Wind Visibility
210° at 5 knots 10 miles
Clouds
  • Clear skies
Temperature Dewpoint
28°C / 82°F 7°C / 45°F
Humidity Altimeter Pressure
26% 30.18" Hg 1016.2 hPa